Oushou Maru — JD2052 — position and weather

sailwx.info

Track history (hours):
 
Tides and Currents Weather Stations Pressure Air Temp Water Temp Dewpoint Dewpoint Depression Visibility Wind Speed Wind Dir Waves Ship Positions

Oushou Maru

Last reported at 2018-Jan-22 22:16 UTC. Time now 2018-Jan-23 07:58 UTC.
Position N 35°38' E 139°59'.

Length 62 m.

Type: Tanker. MMSI: 431401998.

Date/timePositionNaut miles runAvg speedWind from/ knotsBaromVisibWave heightAir tempDewpointWater temp
2018-Jan-22 22:16N 35°38' E 139°59'1 3.5
2018-Jan-22 21:55N 35°37' E 139°58'0 0.0
2018-Jan-22 20:31N 35°37' E 139°58'0 0.1
2018-Jan-22 20:28N 35°37' E 139°58'0 0.0
2018-Jan-22 19:55N 35°37' E 139°58'0 0.0
2018-Jan-22 19:25N 35°37' E 139°58'0 0.0
2018-Jan-22 18:55N 35°37' E 139°58'0 0.0
2018-Jan-22 18:25N 35°37' E 139°58'0 0.0
2018-Jan-22 17:55N 35°37' E 139°58'0 0.0
2018-Jan-22 17:25N 35°37' E 139°58'0 0.0
2018-Jan-22 16:55N 35°37' E 139°58'0 0.0
2018-Jan-22 16:28N 35°37' E 139°58'0 0.0
2018-Jan-22 15:55N 35°37' E 139°58'0 0.0
2018-Jan-22 15:25N 35°37' E 139°58'0 0.0
2018-Jan-22 14:55N 35°37' E 139°58'0 0.0
2018-Jan-22 14:07N 35°37' E 139°58'0 0.0
2018-Jan-22 13:49N 35°37' E 139°58'0 0.0
2018-Jan-22 13:25N 35°37' E 139°58'0 0.0
2018-Jan-22 12:55N 35°37' E 139°58'0 0.0
2018-Jan-22 12:25N 35°37' E 139°58'0 0.0
2018-Jan-22 11:55N 35°37' E 139°58'0 0.0
2018-Jan-22 11:25N 35°37' E 139°58'1 2.4
2018-Jan-22 10:55N 35°36' E 139°58'910.0
2018-Jan-22 10:00N 35°30' E 139°49'4 2.9
2018-Jan-22 08:46N 35°31' E 139°44'0 0.0
2018-Jan-22 08:28N 35°31' E 139°44'0 0.1
2018-Jan-22 06:18N 35°31' E 139°45'2 7.1
2018-Jan-22 05:57N 35°30' E 139°47'2 0.7
2018-Jan-22 02:37N 35°30' E 139°50'1 4.0
2018-Jan-22 02:27N 35°30' E 139°51'9 2.2
2018-Jan-21 22:25N 35°30' E 140°02'2 0.2
2018-Jan-21 13:39N 35°30' E 140°00'0 0.0
2018-Jan-21 09:39N 35°30' E 140°00'0 0.0
2018-Jan-21 08:03N 35°30' E 140°00'1 2.6
2018-Jan-21 07:44N 35°30' E 139°59'311.8
2018-Jan-21 07:28N 35°30' E 139°55'611.6
2018-Jan-21 06:59N 35°30' E 139°48'3 4.3
2018-Jan-21 06:22N 35°32' E 139°46'0 0.0
2018-Jan-21 05:58N 35°32' E 139°46'0 0.0
2018-Jan-21 05:28N 35°32' E 139°46'0 0.0
2018-Jan-21 04:58N 35°32' E 139°46'0 0.0
2018-Jan-21 04:28N 35°32' E 139°46'0 0.0
2018-Jan-21 03:58N 35°32' E 139°46'0 0.0
2018-Jan-21 03:25N 35°32' E 139°46'1 1.6
2018-Jan-21 02:59N 35°31' E 139°46'4 8.4
2018-Jan-21 02:29N 35°30' E 139°51'510.6
2018-Jan-21 01:58N 35°30' E 139°58'2 0.5
2018-Jan-20 22:12N 35°30' E 140°00'1 2.9
2018-Jan-20 21:54N 35°30' E 140°00'0 0.1
2018-Jan-20 21:12N 35°30' E 140°00'0 0.0
2018-Jan-20 20:57N 35°30' E 140°00'0 0.0
2018-Jan-20 20:27N 35°30' E 140°00'0 0.0
2018-Jan-20 19:39N 35°30' E 140°00'0 0.0
2018-Jan-20 19:21N 35°30' E 140°00'0 0.0
2018-Jan-20 15:27N 35°30' E 140°00'0 0.0
2018-Jan-20 11:51N 35°30' E 140°00'0 0.0
2018-Jan-20 11:24N 35°30' E 140°00'0 0.0
2018-Jan-20 09:18N 35°30' E 140°00'3 9.7
2018-Jan-20 09:00N 35°30' E 139°56'611.6
2018-Jan-20 08:29N 35°30' E 139°49'4 1.0
2018-Jan-20 04:53N 35°31' E 139°44'3 7.6
2018-Jan-20 04:29N 35°30' E 139°48'2 1.2
2018-Jan-20 02:56N 35°30' E 139°50'5 6.2
2018-Jan-20 02:09N 35°30' E 139°56'211.0
2018-Jan-20 01:58N 35°30' E 139°59'2 0.5
2018-Jan-19 22:21N 35°30' E 140°01'1 3.8
2018-Jan-19 21:59N 35°32' E 140°01'5 9.6
2018-Jan-19 21:30N 35°35' E 140°04'2 3.6
2018-Jan-19 20:59N 35°36' E 140°06'0 0.0
2018-Jan-19 20:29N 35°36' E 140°06'0 0.0
2018-Jan-19 19:59N 35°36' E 140°06'0 0.0
2018-Jan-19 19:29N 35°36' E 140°06'0 0.0
2018-Jan-19 18:59N 35°36' E 140°06'0 0.0
2018-Jan-19 18:29N 35°36' E 140°06'0 0.0
2018-Jan-19 17:59N 35°36' E 140°06'0 0.0
2018-Jan-19 17:29N 35°36' E 140°06'0 0.0
2018-Jan-19 16:59N 35°36' E 140°06'0 0.0
2018-Jan-19 16:29N 35°36' E 140°06'0 0.0
2018-Jan-19 15:59N 35°36' E 140°06'0 0.0
2018-Jan-19 15:29N 35°36' E 140°06'0 0.0
2018-Jan-19 14:53N 35°36' E 140°06'0 0.0
2018-Jan-19 14:29N 35°36' E 140°06'0 0.0
2018-Jan-19 13:59N 35°36' E 140°06'0 0.0
2018-Jan-19 13:29N 35°36' E 140°06'0 0.0
2018-Jan-19 12:59N 35°36' E 140°06'0 0.0
2018-Jan-19 12:29N 35°36' E 140°06'0 0.0
2018-Jan-19 11:59N 35°36' E 140°06'0 0.0
2018-Jan-19 11:29N 35°36' E 140°06'0 0.0
2018-Jan-19 10:59N 35°36' E 140°06'0 0.0
2018-Jan-19 10:29N 35°36' E 140°06'0 0.0
2018-Jan-19 09:59N 35°36' E 140°06'0 0.0
2018-Jan-19 09:29N 35°36' E 140°06'0 0.0
2018-Jan-19 08:59N 35°36' E 140°06'0 0.0
2018-Jan-19 08:29N 35°36' E 140°06'0 0.0
2018-Jan-19 07:59N 35°36' E 140°06'0 0.0
2018-Jan-19 07:29N 35°36' E 140°06'0 0.0
2018-Jan-19 06:59N 35°36' E 140°06'0 0.0
2018-Jan-19 06:29N 35°36' E 140°06'0 0.0
2018-Jan-19 05:59N 35°36' E 140°06'0 0.0
2018-Jan-19 05:29N 35°36' E 140°06'0 0.3
2018-Jan-19 04:59N 35°36' E 140°06'5 9.8
2018-Jan-19 04:30N 35°34' E 140°01'1011.6
2018-Jan-19 03:36N 35°28' E 139°51'111.3
2018-Jan-19 03:30N 35°27' E 139°50'611.1
2018-Jan-19 02:59N 35°22' E 139°45'510.2
2018-Jan-19 02:30N 35°18' E 139°45'510.3
2018-Jan-19 01:59N 35°12' E 139°47'510.7
2018-Jan-19 01:30N 35°07' E 139°45'510.6
2018-Jan-19 01:00N 35°04' E 139°40'610.3
2018-Jan-19 00:28N 34°60' E 139°36'3210.2
2018-Jan-18 21:17N 34°39' E 139°05'5 9.6
2018-Jan-18 20:48N 34°37' E 139°00'11210.9
2018-Jan-18 10:33N 34°48' E 136°45'112.4
2018-Jan-18 10:30N 34°49' E 136°45'612.4
2018-Jan-18 10:00N 34°55' E 136°42'3 4.9
2018-Jan-18 09:23N 34°56' E 136°39'0 0.0
2018-Jan-18 08:53N 34°56' E 136°39'0 0.0
2018-Jan-18 08:26N 34°56' E 136°39'0 0.0
2018-Jan-18 07:56N 34°56' E 136°39'0 0.0
2018-Jan-18 07:29N 34°56' E 136°39'0 0.0
2018-Jan-18 06:59N 34°56' E 136°39'0 0.0
2018-Jan-18 06:29N 34°56' E 136°39'0 0.0
2018-Jan-18 05:59N 34°56' E 136°39'1 2.8
2018-Jan-18 05:30N 34°57' E 136°40'3 5.9
2018-Jan-18 05:00N 34°54' E 136°41'3 5.3
2018-Jan-18 04:30N 34°52' E 136°42'4 7.5
2018-Jan-18 04:00N 34°48' E 136°43'4 7.4
2018-Jan-18 03:29N 34°44' E 136°44'  
Track history (hours):
 
Tides and Currents Weather Stations Pressure Air Temp Water Temp Dewpoint Dewpoint Depression Visibility Wind Speed Wind Dir Waves Ship Positions

Oushou Maru

Last reported at 2018-Jan-22 22:16 UTC. Time now 2018-Jan-23 07:58 UTC.
Position N 35°38' E 139°59'.

Length 62 m.

Type: Tanker. MMSI: 431401998.

Date/timePositionNaut miles runAvg speedWind from/ knotsBaromVisibWave heightAir tempDewpointWater temp
2018-Jan-22 22:16N 35°38' E 139°59'1 3.5
2018-Jan-22 21:55N 35°37' E 139°58'0 0.0
2018-Jan-22 20:31N 35°37' E 139°58'0 0.1
2018-Jan-22 20:28N 35°37' E 139°58'0 0.0
2018-Jan-22 19:55N 35°37' E 139°58'0 0.0
2018-Jan-22 19:25N 35°37' E 139°58'0 0.0
2018-Jan-22 18:55N 35°37' E 139°58'0 0.0
2018-Jan-22 18:25N 35°37' E 139°58'0 0.0
2018-Jan-22 17:55N 35°37' E 139°58'0 0.0
2018-Jan-22 17:25N 35°37' E 139°58'0 0.0
2018-Jan-22 16:55N 35°37' E 139°58'0 0.0
2018-Jan-22 16:28N 35°37' E 139°58'0 0.0
2018-Jan-22 15:55N 35°37' E 139°58'0 0.0
2018-Jan-22 15:25N 35°37' E 139°58'0 0.0
2018-Jan-22 14:55N 35°37' E 139°58'0 0.0
2018-Jan-22 14:07N 35°37' E 139°58'0 0.0
2018-Jan-22 13:49N 35°37' E 139°58'0 0.0
2018-Jan-22 13:25N 35°37' E 139°58'0 0.0
2018-Jan-22 12:55N 35°37' E 139°58'0 0.0
2018-Jan-22 12:25N 35°37' E 139°58'0 0.0
2018-Jan-22 11:55N 35°37' E 139°58'0 0.0
2018-Jan-22 11:25N 35°37' E 139°58'1 2.4
2018-Jan-22 10:55N 35°36' E 139°58'910.0
2018-Jan-22 10:00N 35°30' E 139°49'4 2.9
2018-Jan-22 08:46N 35°31' E 139°44'0 0.0
2018-Jan-22 08:28N 35°31' E 139°44'0 0.1
2018-Jan-22 06:18N 35°31' E 139°45'2 7.1
2018-Jan-22 05:57N 35°30' E 139°47'2 0.7
2018-Jan-22 02:37N 35°30' E 139°50'1 4.0
2018-Jan-22 02:27N 35°30' E 139°51'9 2.2
2018-Jan-21 22:25N 35°30' E 140°02'2 0.2
2018-Jan-21 13:39N 35°30' E 140°00'0 0.0
2018-Jan-21 09:39N 35°30' E 140°00'0 0.0
2018-Jan-21 08:03N 35°30' E 140°00'1 2.6
2018-Jan-21 07:44N 35°30' E 139°59'311.8
2018-Jan-21 07:28N 35°30' E 139°55'611.6
2018-Jan-21 06:59N 35°30' E 139°48'3 4.3
2018-Jan-21 06:22N 35°32' E 139°46'0 0.0
2018-Jan-21 05:58N 35°32' E 139°46'0 0.0
2018-Jan-21 05:28N 35°32' E 139°46'0 0.0
2018-Jan-21 04:58N 35°32' E 139°46'0 0.0
2018-Jan-21 04:28N 35°32' E 139°46'0 0.0
2018-Jan-21 03:58N 35°32' E 139°46'0 0.0
2018-Jan-21 03:25N 35°32' E 139°46'1 1.6
2018-Jan-21 02:59N 35°31' E 139°46'4 8.4
2018-Jan-21 02:29N 35°30' E 139°51'510.6
2018-Jan-21 01:58N 35°30' E 139°58'2 0.5
2018-Jan-20 22:12N 35°30' E 140°00'1 2.9
2018-Jan-20 21:54N 35°30' E 140°00'0 0.1
2018-Jan-20 21:12N 35°30' E 140°00'0 0.0
2018-Jan-20 20:57N 35°30' E 140°00'0 0.0
2018-Jan-20 20:27N 35°30' E 140°00'0 0.0
2018-Jan-20 19:39N 35°30' E 140°00'0 0.0
2018-Jan-20 19:21N 35°30' E 140°00'0 0.0
2018-Jan-20 15:27N 35°30' E 140°00'0 0.0
2018-Jan-20 11:51N 35°30' E 140°00'0 0.0
2018-Jan-20 11:24N 35°30' E 140°00'0 0.0
2018-Jan-20 09:18N 35°30' E 140°00'3 9.7
2018-Jan-20 09:00N 35°30' E 139°56'611.6
2018-Jan-20 08:29N 35°30' E 139°49'4 1.0
2018-Jan-20 04:53N 35°31' E 139°44'3 7.6
2018-Jan-20 04:29N 35°30' E 139°48'2 1.2
2018-Jan-20 02:56N 35°30' E 139°50'5 6.2
2018-Jan-20 02:09N 35°30' E 139°56'211.0
2018-Jan-20 01:58N 35°30' E 139°59'2 0.5
2018-Jan-19 22:21N 35°30' E 140°01'1 3.8
2018-Jan-19 21:59N 35°32' E 140°01'5 9.6
2018-Jan-19 21:30N 35°35' E 140°04'2 3.6
2018-Jan-19 20:59N 35°36' E 140°06'0 0.0
2018-Jan-19 20:29N 35°36' E 140°06'0 0.0
2018-Jan-19 19:59N 35°36' E 140°06'0 0.0
2018-Jan-19 19:29N 35°36' E 140°06'0 0.0
2018-Jan-19 18:59N 35°36' E 140°06'0 0.0
2018-Jan-19 18:29N 35°36' E 140°06'0 0.0
2018-Jan-19 17:59N 35°36' E 140°06'0 0.0
2018-Jan-19 17:29N 35°36' E 140°06'0 0.0
2018-Jan-19 16:59N 35°36' E 140°06'0 0.0
2018-Jan-19 16:29N 35°36' E 140°06'0 0.0
2018-Jan-19 15:59N 35°36' E 140°06'0 0.0
2018-Jan-19 15:29N 35°36' E 140°06'0 0.0
2018-Jan-19 14:53N 35°36' E 140°06'0 0.0
2018-Jan-19 14:29N 35°36' E 140°06'0 0.0
2018-Jan-19 13:59N 35°36' E 140°06'0 0.0
2018-Jan-19 13:29N 35°36' E 140°06'0 0.0
2018-Jan-19 12:59N 35°36' E 140°06'0 0.0
2018-Jan-19 12:29N 35°36' E 140°06'0 0.0
2018-Jan-19 11:59N 35°36' E 140°06'0 0.0
2018-Jan-19 11:29N 35°36' E 140°06'0 0.0
2018-Jan-19 10:59N 35°36' E 140°06'0 0.0
2018-Jan-19 10:29N 35°36' E 140°06'0 0.0
2018-Jan-19 09:59N 35°36' E 140°06'0 0.0
2018-Jan-19 09:29N 35°36' E 140°06'0 0.0
2018-Jan-19 08:59N 35°36' E 140°06'0 0.0
2018-Jan-19 08:29N 35°36' E 140°06'0 0.0
2018-Jan-19 07:59N 35°36' E 140°06'0 0.0
2018-Jan-19 07:29N 35°36' E 140°06'0 0.0
2018-Jan-19 06:59N 35°36' E 140°06'0 0.0
2018-Jan-19 06:29N 35°36' E 140°06'0 0.0
2018-Jan-19 05:59N 35°36' E 140°06'0 0.0
2018-Jan-19 05:29N 35°36' E 140°06'0 0.3
2018-Jan-19 04:59N 35°36' E 140°06'5 9.8
2018-Jan-19 04:30N 35°34' E 140°01'1011.6
2018-Jan-19 03:36N 35°28' E 139°51'111.3
2018-Jan-19 03:30N 35°27' E 139°50'611.1
2018-Jan-19 02:59N 35°22' E 139°45'510.2
2018-Jan-19 02:30N 35°18' E 139°45'510.3
2018-Jan-19 01:59N 35°12' E 139°47'510.7
2018-Jan-19 01:30N 35°07' E 139°45'510.6
2018-Jan-19 01:00N 35°04' E 139°40'610.3
2018-Jan-19 00:28N 34°60' E 139°36'3210.2
2018-Jan-18 21:17N 34°39' E 139°05'5 9.6
2018-Jan-18 20:48N 34°37' E 139°00'11210.9
2018-Jan-18 10:33N 34°48' E 136°45'112.4
2018-Jan-18 10:30N 34°49' E 136°45'612.4
2018-Jan-18 10:00N 34°55' E 136°42'3 4.9
2018-Jan-18 09:23N 34°56' E 136°39'0 0.0
2018-Jan-18 08:53N 34°56' E 136°39'0 0.0
2018-Jan-18 08:26N 34°56' E 136°39'0 0.0
2018-Jan-18 07:56N 34°56' E 136°39'0 0.0
2018-Jan-18 07:29N 34°56' E 136°39'0 0.0
2018-Jan-18 06:59N 34°56' E 136°39'0 0.0
2018-Jan-18 06:29N 34°56' E 136°39'0 0.0
2018-Jan-18 05:59N 34°56' E 136°39'1 2.8
2018-Jan-18 05:30N 34°57' E 136°40'3 5.9
2018-Jan-18 05:00N 34°54' E 136°41'3 5.3
2018-Jan-18 04:30N 34°52' E 136°42'4 7.5
2018-Jan-18 04:00N 34°48' E 136°43'4 7.4
2018-Jan-18 03:29N 34°44' E 136°44'  

Dump ship's entire track history